FIR MONTEVIDEO

Bienvenidos al Fir Montevideo, somos la organización oficial que representa a Uruguay en la red Vatsim. Nuestro principal objetivo es brindar el máximo realismo para los pilotos que vuelen en nuestro espacio, ofreciendo un servicio seguro, ordenado y ágil, sin dejar de lado que esto es un hobby.


ATENCION:
El presente web y su contenido es para uso exclusivo de pilotos y controladores de la Red de Control de Tráfico Aéreo Simulado (VATSIM) Las cartas y procedimientos publicados en este sitio NO deben usarse para la navegación real El FIR Montevideo no está afiliado de ninguna forma con la AIC, DGIA, OACI o FAA ni con ninguna aerolínea real.

Pilotos Online

Flight VRG106

Pilot Pedro Gimenez SABE

Aircraft T/MD82

Departure

ICAO SUMU

Dep. time 2326 Hs

Planned Alitude FL350 ft

Approach

ICAO SBFL

Enrute 1:30 Hs

Fuel 2:0 Hs


Gnd. Speed 444

Altitude 27661

Heading 26

Dest. Metar SBFL 010000Z 12002KT CAVOK 21/11 Q1014



Flight PUA1167

Pilot Darcy Bataille SUMU

Aircraft AC50/L

Departure

ICAO SBPK

Dep. time 0 Hs

Planned Alitude 12000 ft

Approach

ICAO SUMU

Enrute 2:45 Hs

Fuel 3:30 Hs


Gnd. Speed 116

Altitude 1119

Heading 233

Dest. Metar SUMU 010000Z 23013G23KT 9999 BKN023 12/07 Q1018 TEMPO DZ



Flight PUA1517

Pilot Sergio Fleitas SUMU

Aircraft B753

Departure

ICAO SAWH

Dep. time 9 Hs

Planned Alitude FL330 ft

Approach

ICAO SUMU

Enrute 5:3 Hs

Fuel 6:32 Hs


Gnd. Speed 442

Altitude 27939

Heading 11

Dest. Metar SUMU 010000Z 23013G23KT 9999 BKN023 12/07 Q1018 TEMPO DZ



Flight PUA1540

Pilot Franco Rodriguez SUMU

Aircraft BE58/C

Departure

ICAO SUMU

Dep. time 0 Hs

Planned Alitude 10000 ft

Approach

ICAO SUSO

Enrute 0:0 Hs

Fuel 0:0 Hs


Gnd. Speed 154

Altitude 4618

Heading 325

Dest. Metar SUSO 312100Z 24006KT 9999 FEW023 12/06 Q1019



Flight PUA2011

Pilot Ruben Torres SCOM

Aircraft B738/L

Departure

ICAO SBGR

Dep. time 100 Hs

Planned Alitude 34000 ft

Approach

ICAO SUMU

Enrute 2:25 Hs

Fuel 2:53 Hs


Gnd. Speed 0

Altitude 2467

Heading 304

Dest. Metar SUMU 010000Z 23013G23KT 9999 BKN023 12/07 Q1018 TEMPO DZ


ATC Online


Gualdemar Gutierrezq

SUMU_ATIS - 128.000



Gualdemar Gutierrez

SUEO_CTR - 128.500


Eventos

Uniendo Los Andes

2020-05-31

20:00:00

Estimados miembros de Vatsim, Fir Lima, Vatsim Colombia, Fir Guayaquil y ACC Chile los invitan a participar de nuestro próximo evento que realizaremos en conjunto este domingo. Los esperamos!

Noticias

Actualización de Procedimientos

Se encuentra disponible el documento con la informacón sobre la actualización y estandarización de los pocedimientos.
Gracias Agustin Miglino!!

FIR Montevideo

Nuevo Sector AIRAC 2005

Ya está disponible el nuevo sector AIRAC 2005 para EuroScope del FIR Montevideo

FIR Montevideo

X-Plane

Información para usuarios de X-Plane







Estadisicas Del FIR

41

Pilotos este Mes

No dudes en sumarte y disfrutar con nosotros

8

Controladores este Mes

Con experiencia y ganas de ayudarte controlando tus vuelos

424.84

Horas de Vuelo

En lo largo y ancho de nuestro país, disfrutando nuestos paisajes

221.5

Horas de Control

Para que todos y cada uno de tus vuelos sean controlados y disfrutemos de esta pasión juntos

© 2020 FIR Montevideo - Todos los derechos reservados.